Beaver Falls, PA

7:14 PM EST on November 14, 2019 (GMT -0500)
Beaver County

Weather History for KBVI - September, 2019

Change the Weather History Date:

Thursday, September 5, 2019

  Actual Average Record
Temperature  
Mean Temperature 63 °F -  
Max Temperature 74 °F 76 °F 91 °F (2007)
Min Temperature 52 °F 58 °F 48 °F (2000)
Degree Days  
Heating Degree Days 2    
Growing Degree Days 13 (Base 50)    
Moisture  
Dew Point 53 °F    
Average Humidity 71    
Maximum Humidity 94    
Minimum Humidity 46    
Precipitation  
Precipitation 0.00 in - - ()
Sea Level Pressure  
Sea Level Pressure 30.10 in    
Wind  
Wind Speed 4 mph (North)    
Max Wind Speed 10 mph    
Max Gust Speed -    
Visibility 10 miles    
Events      
Averages and records for this station are not official NWS values.
T = Trace of Precipitation, MM = Missing Value Source: NWS Daily Summary

Daily Weather History Graph

Daily Weather History Graph

Search for Another Location

Airport or City:

Astronomy

Sep. 05, 2019 Rise Set
Actual Time 6:52 AM EDT 7:47 PM EDT
Civil Twilight 6:24 AM EDT 8:15 PM EDT
Nautical Twilight 5:51 AM EDT 8:48 PM EDT
Astronomical Twilight 5:16 AM EDT 9:23 PM EDT
Moon 1:59 PM EDT (9/5) 11:59 PM EDT (9/5)
Length of Visible Light 13h 51m
Length of Day
12h 55m
Waxing Crescent, 45% of the Moon is Illuminated
Sep 5
Waxing Crescent
Sep 5
First Quarter
Sep 14
Full
Sep 21
Last Quarter
Sep 28
New

Hourly Weather History & Observations

Time (EDT) Temp. Dew Point Humidity Pressure Visibility Wind Dir Wind Speed Gust Speed Precip Events Conditions
12:15 AM 57.7 °F 54.0 °F 87% 30.12 in 10.0 mi North 4.6 mph - N/A   Clear
12:35 AM 58.1 °F 54.0 °F 86% 30.12 in 10.0 mi North 3.5 mph - N/A   Clear
12:55 AM 57.2 °F 53.6 °F 88% 30.12 in 10.0 mi NNW 3.5 mph - N/A   Clear
12:56 AM 57.2 °F 53.6 °F 88% 30.12 in 10.0 mi North 3.5 mph - N/A   Clear
1:15 AM 57.2 °F 53.8 °F 88% 30.12 in 10.0 mi NNW 5.8 mph - N/A   Clear
1:35 AM 57.2 °F 53.6 °F 88% 30.11 in 10.0 mi North 5.8 mph - N/A   Clear
1:36 AM 57.2 °F 53.6 °F 88% 30.11 in 10.0 mi North 5.8 mph - N/A   Clear
1:55 AM 56.7 °F 53.6 °F 89% 30.11 in 10.0 mi Calm Calm - N/A   Clear
1:56 AM 56.7 °F 53.6 °F 89% 30.11 in 10.0 mi Calm Calm - N/A   Clear
2:15 AM 56.1 °F 53.1 °F 89% 30.11 in 10.0 mi North 4.6 mph - N/A   Clear
2:35 AM 56.3 °F 53.2 °F 89% 30.11 in 10.0 mi Calm Calm - N/A   Clear
2:55 AM 55.4 °F 52.3 °F 89% 30.11 in 10.0 mi Calm Calm - N/A   Clear
2:56 AM 55.4 °F 52.3 °F 89% 30.11 in 10.0 mi Calm Calm - N/A   Clear
3:15 AM 55.2 °F 52.5 °F 91% 30.11 in 10.0 mi Calm Calm - N/A   Clear
3:35 AM 54.5 °F 51.8 °F 91% 30.12 in 10.0 mi Calm Calm - N/A   Clear
3:55 AM 54.0 °F 51.4 °F 91% 30.12 in 10.0 mi Calm Calm - N/A   Clear
4:15 AM 54.1 °F 52.0 °F 92% 30.12 in 10.0 mi Calm Calm - N/A   Clear
4:16 AM 54.1 °F 52.0 °F 92% 30.12 in 10.0 mi Calm Calm - N/A   Clear
4:35 AM 54.1 °F 52.2 °F 93% 30.13 in 10.0 mi Calm Calm - N/A   Clear
4:55 AM 53.8 °F 51.6 °F 92% 30.13 in 10.0 mi Calm Calm - N/A   Clear
5:15 AM 52.9 °F 50.7 °F 92% 30.13 in 10.0 mi Calm Calm - N/A   Clear
5:16 AM 52.9 °F 50.9 °F 93% 30.13 in 10.0 mi Calm Calm - N/A   Clear
5:35 AM 53.6 °F 51.3 °F 92% 30.13 in 10.0 mi Calm Calm - N/A   Clear
5:55 AM 52.9 °F 50.7 °F 92% 30.13 in 10.0 mi Calm Calm - N/A   Clear
6:15 AM 52.7 °F 50.9 °F 94% 30.13 in 10.0 mi Calm Calm - N/A   Clear
6:35 AM 52.9 °F 51.1 °F 94% 30.13 in 10.0 mi Calm Calm - N/A   Scattered Clouds
6:36 AM 52.9 °F 51.1 °F 94% 30.13 in 10.0 mi Calm Calm - N/A   Scattered Clouds
6:47 AM 53.6 °F 51.8 °F 94% 30.13 in 10.0 mi Calm Calm - N/A   Clear
6:55 AM 52.7 °F 50.9 °F 94% 30.13 in 10.0 mi North 3.5 mph - N/A   Clear
6:56 AM 52.7 °F 50.9 °F 94% 30.13 in 10.0 mi North 3.5 mph - N/A   Clear
7:15 AM 53.6 °F 51.8 °F 94% 30.13 in 10.0 mi North 4.6 mph - N/A   Clear
7:35 AM 54.1 °F 52.3 °F 94% 30.13 in 10.0 mi North 4.6 mph - N/A   Clear
7:47 AM 55.4 °F 51.8 °F 88% 30.13 in 10.0 mi North 4.6 mph - N/A   Clear
7:55 AM 55.2 °F 52.7 °F 91% 30.14 in 10.0 mi North 4.6 mph - N/A   Clear
7:56 AM 55.4 °F 52.7 °F 91% 30.14 in 10.0 mi North 4.6 mph - N/A   Clear
8:15 AM 56.5 °F 53.1 °F 88% 30.14 in 10.0 mi North 3.5 mph - N/A   Clear
8:16 AM 56.7 °F 53.1 °F 88% 30.14 in 10.0 mi North 3.5 mph - N/A   Clear
8:35 AM 58.3 °F 53.6 °F 84% 30.15 in 10.0 mi North 4.6 mph - N/A   Clear
8:47 AM 59.0 °F 53.6 °F 82% 30.15 in 10.0 mi NNE 5.8 mph - N/A   Clear
8:55 AM 60.1 °F 54.3 °F 81% 30.15 in 10.0 mi Calm Calm - N/A   Clear
8:56 AM 60.3 °F 54.3 °F 81% 30.15 in 10.0 mi Calm Calm - N/A   Clear
9:15 AM 61.3 °F 54.1 °F 77% 30.15 in 10.0 mi NNE 3.5 mph - N/A   Clear
9:35 AM 63.3 °F 54.9 °F 74% 30.16 in 10.0 mi NNE 4.6 mph - N/A   Clear
9:36 AM 63.5 °F 54.7 °F 73% 30.16 in 10.0 mi NNE 4.6 mph - N/A   Clear
9:47 AM 64.4 °F 55.4 °F 73% 30.15 in 10.0 mi North 5.8 mph - N/A   Clear
9:55 AM 64.4 °F 54.9 °F 71% 30.16 in 10.0 mi Calm Calm - N/A   Clear
9:56 AM 64.4 °F 54.9 °F 71% 30.16 in 10.0 mi Calm Calm - N/A   Clear
10:15 AM 65.7 °F 54.9 °F 68% 30.16 in 10.0 mi NNE 4.6 mph - N/A   Clear
10:35 AM 66.7 °F 54.9 °F 66% 30.15 in 10.0 mi NE 4.6 mph - N/A   Scattered Clouds
10:36 AM 66.7 °F 54.7 °F 65% 30.15 in 10.0 mi NE 3.5 mph - N/A   Scattered Clouds
10:47 AM 66.2 °F 53.6 °F 64% 30.15 in 10.0 mi NNE 4.6 mph - N/A   Scattered Clouds
11:15 AM 68.7 °F 54.9 °F 61% 30.15 in 10.0 mi North 5.8 mph - N/A   Scattered Clouds
11:35 AM 68.9 °F 54.3 °F 60% 30.14 in 10.0 mi North 8.1 mph - N/A   Scattered Clouds
11:36 AM 68.9 °F 54.1 °F 59% 30.14 in 10.0 mi North 10.4 mph - N/A   Scattered Clouds
11:47 AM 69.8 °F 53.6 °F 56% 30.14 in 10.0 mi North 6.9 mph - N/A   Mostly Cloudy
11:55 AM 69.8 °F 52.7 °F 54% 30.14 in 10.0 mi North 6.9 mph - N/A   Scattered Clouds
11:56 AM 70.0 °F 52.9 °F 55% 30.14 in 10.0 mi North 8.1 mph - N/A   Scattered Clouds
12:15 PM 70.5 °F 53.8 °F 55% 30.13 in 10.0 mi North 5.8 mph - N/A   Clear
12:16 PM 70.5 °F 54.0 °F 56% 30.13 in 10.0 mi North 4.6 mph - N/A   Clear
12:35 PM 70.7 °F 53.4 °F 54% 30.12 in 10.0 mi North 5.8 mph - N/A   Clear
12:36 PM 70.7 °F 53.2 °F 54% 30.12 in 10.0 mi North 5.8 mph - N/A   Clear
12:47 PM 69.8 °F 53.6 °F 56% 30.13 in 10.0 mi NE 3.5 mph - N/A   Clear
12:55 PM 71.8 °F 52.9 °F 51% 30.13 in 10.0 mi Calm Calm - N/A   Clear
1:15 PM 72.0 °F 53.2 °F 52% 30.12 in 10.0 mi North 3.5 mph - N/A   Clear
1:35 PM 73.0 °F 53.8 °F 51% 30.12 in 10.0 mi North 4.6 mph - N/A   Clear
1:36 PM 72.9 °F 53.4 °F 50% 30.12 in 10.0 mi Calm Calm - N/A   Clear
1:47 PM 73.4 °F 53.6 °F 50% 30.11 in 10.0 mi NNE 8.1 mph - N/A   Clear
1:55 PM 73.0 °F 54.3 °F 52% 30.11 in 10.0 mi NNW 3.5 mph - N/A   Clear
2:15 PM 74.1 °F 54.0 °F 49% 30.10 in 10.0 mi NNE 4.6 mph - N/A   Scattered Clouds
2:35 PM 74.1 °F 53.4 °F 48% 30.09 in 10.0 mi NNE 4.6 mph - N/A   Scattered Clouds
2:36 PM 74.1 °F 53.4 °F 48% 30.09 in 10.0 mi North 6.9 mph - N/A   Scattered Clouds
2:47 PM 73.4 °F 51.8 °F 47% 30.09 in 10.0 mi North 3.5 mph - N/A   Scattered Clouds
2:55 PM 73.6 °F 53.2 °F 49% 30.08 in 10.0 mi Calm Calm - N/A   Scattered Clouds
2:56 PM 73.8 °F 53.2 °F 49% 30.08 in 10.0 mi ESE 3.5 mph - N/A   Scattered Clouds
3:15 PM 73.0 °F 53.4 °F 50% 30.08 in 10.0 mi North 5.8 mph - N/A   Scattered Clouds
3:35 PM 73.8 °F 52.0 °F 46% 30.08 in 10.0 mi NNE 4.6 mph - N/A   Scattered Clouds
3:36 PM 73.4 °F 51.8 °F 47% 30.08 in 10.0 mi North 4.6 mph - N/A   Scattered Clouds
3:47 PM 73.4 °F 53.6 °F 50% 30.07 in 10.0 mi North 5.8 mph - N/A   Scattered Clouds
3:55 PM 74.1 °F 53.1 °F 48% 30.07 in 10.0 mi NNE 6.9 mph - N/A   Scattered Clouds
3:56 PM 74.1 °F 53.1 °F 48% 30.07 in 10.0 mi North 6.9 mph - N/A   Scattered Clouds
4:15 PM 74.3 °F 53.6 °F 48% 30.07 in 10.0 mi Calm Calm - N/A   Clear
4:35 PM 73.8 °F 52.9 °F 48% 30.08 in 10.0 mi NNE 5.8 mph - N/A   Clear
4:36 PM 73.8 °F 52.9 °F 48% 30.08 in 10.0 mi NNE 4.6 mph - N/A   Clear
4:47 PM 73.4 °F 51.8 °F 47% 30.07 in 10.0 mi NNE 4.6 mph - N/A   Clear
5:15 PM 74.3 °F 53.1 °F 47% 30.07 in 10.0 mi NNW 4.6 mph - N/A   Clear
5:35 PM 73.8 °F 52.9 °F 48% 30.07 in 10.0 mi NW 8.1 mph - N/A   Clear
5:47 PM 73.4 °F 53.6 °F 50% 30.06 in 10.0 mi North 4.6 mph - N/A   Clear
5:55 PM 73.4 °F 53.2 °F 49% 30.06 in 10.0 mi NW 3.5 mph - N/A   Clear
6:15 PM 72.7 °F 53.1 °F 50% 30.06 in 10.0 mi North 4.6 mph - N/A   Clear
6:16 PM 72.7 °F 53.1 °F 50% 30.06 in 10.0 mi North 5.8 mph - N/A   Clear
6:35 PM 71.8 °F 53.4 °F 52% 30.06 in 10.0 mi North 5.8 mph - N/A   Clear
6:36 PM 71.8 °F 53.4 °F 52% 30.06 in 10.0 mi North 4.6 mph - N/A   Clear
6:55 PM 71.1 °F 53.4 °F 54% 30.06 in 10.0 mi NNW 4.6 mph - N/A   Clear
7:15 PM 69.8 °F 54.0 °F 57% 30.05 in 10.0 mi North 3.5 mph - N/A   Clear
7:16 PM 69.8 °F 54.0 °F 57% 30.05 in 10.0 mi North 3.5 mph - N/A   Clear
7:35 PM 68.0 °F 54.1 °F 61% 30.05 in 10.0 mi Calm Calm - N/A   Clear
7:36 PM 68.0 °F 54.1 °F 61% 30.05 in 10.0 mi Calm Calm - N/A   Clear
7:55 PM 66.6 °F 54.7 °F 66% 30.05 in 10.0 mi NNW 3.5 mph - N/A   Clear
8:15 PM 65.8 °F 54.0 °F 65% 30.05 in 10.0 mi NNW 4.6 mph - N/A   Clear
8:35 PM 65.3 °F 53.4 °F 65% 30.05 in 10.0 mi North 5.8 mph - N/A   Clear
8:36 PM 65.3 °F 53.4 °F 65% 30.05 in 10.0 mi North 5.8 mph - N/A   Clear
8:47 PM 66.2 °F 53.6 °F 64% 30.05 in 10.0 mi North 5.8 mph - N/A   Clear
8:55 PM 65.3 °F 53.2 °F 65% 30.05 in 10.0 mi North 4.6 mph - N/A   Clear
8:56 PM 65.3 °F 53.2 °F 65% 30.05 in 10.0 mi North 4.6 mph - N/A   Clear
9:15 PM 64.6 °F 53.8 °F 68% 30.06 in 10.0 mi North 6.9 mph - N/A   Clear
9:16 PM 64.6 °F 53.8 °F 68% 30.06 in 10.0 mi North 8.1 mph - N/A   Clear
9:35 PM 63.5 °F 54.5 °F 72% 30.06 in 10.0 mi North 5.8 mph - N/A   Clear
9:55 PM 62.8 °F 55.4 °F 77% 30.06 in 10.0 mi North 6.9 mph - N/A   Clear
9:56 PM 62.6 °F 55.4 °F 77% 30.06 in 10.0 mi North 8.1 mph - N/A   Clear
10:15 PM 61.7 °F 55.8 °F 81% 30.06 in 10.0 mi North 4.6 mph - N/A   Clear
10:16 PM 61.7 °F 55.8 °F 81% 30.06 in 10.0 mi North 5.8 mph - N/A   Clear
10:35 PM 61.3 °F 55.9 °F 82% 30.06 in 10.0 mi North 5.8 mph - N/A   Clear
10:55 PM 60.4 °F 55.8 °F 85% 30.05 in 10.0 mi North 5.8 mph - N/A   Clear
10:56 PM 60.4 °F 55.8 °F 85% 30.05 in 10.0 mi North 5.8 mph - N/A   Clear
11:15 PM 60.4 °F 55.8 °F 85% 30.04 in 10.0 mi North 5.8 mph - N/A   Clear
11:16 PM 60.4 °F 55.6 °F 84% 30.04 in 10.0 mi North 5.8 mph - N/A   Clear
11:35 PM 59.5 °F 55.4 °F 86% 30.04 in 10.0 mi North 5.8 mph - N/A   Clear
11:36 PM 59.5 °F 55.4 °F 86% 30.04 in 10.0 mi North 5.8 mph - N/A   Clear
11:55 PM 59.0 °F 55.0 °F 87% 30.03 in 10.0 mi North 4.6 mph - N/A   Clear
11:56 PM 59.0 °F 55.0 °F 87% 30.03 in 10.0 mi North 4.6 mph - N/A   Clear